SWA1718 KLAS-KHOU
Flight info
| Callsign | SWA1718 |
|---|---|
| Flight time | N/A |
| Altitude | 37000 |
| Route | NIITZ4 SSKEE INW J86 ELP AGAZY FST CSI REUBE SAT BELLR6 |
| Aircraft | B738/M-SDE2E3GIJ4RWZ/LB1D1 |
Departure
| Time | N/A |
|---|---|
| Airport | Harry Reid International Airport (KLAS) |
Arrival
| Time | 2026-05-08 00:24 |
|---|---|
| Airport | William P. Hobby Airport (KHOU) |
| Time | Latitude | Longitude | Altitude | Speed | Heading |
|---|---|---|---|---|---|
| 2026-05-07 23:53 | 29.80986 | -98.90867 | 37024 ft | 510 kts | 122° |
| 2026-05-07 23:53 | 29.78214 | -98.83343 | 37021 ft | 510 kts | 122° |
| 2026-05-07 23:54 | 29.75443 | -98.75849 | 37019 ft | 509 kts | 122° |
| 2026-05-07 23:54 | 29.72666 | -98.68354 | 37023 ft | 509 kts | 122° |
| 2026-05-07 23:55 | 29.69882 | -98.60846 | 37034 ft | 510 kts | 122° |
| 2026-05-07 23:55 | 29.67099 | -98.53355 | 37043 ft | 510 kts | 122° |
| 2026-05-07 23:56 | 29.64350 | -98.45817 | 37036 ft | 516 kts | 116° |
| 2026-05-07 23:56 | 29.62883 | -98.37608 | 37027 ft | 527 kts | 106° |
| 2026-05-07 23:57 | 29.61752 | -98.29210 | 37060 ft | 531 kts | 105° |
| 2026-05-07 23:57 | 29.60569 | -98.20824 | 37044 ft | 529 kts | 107° |
| 2026-05-07 23:58 | 29.59341 | -98.12501 | 37033 ft | 528 kts | 106° |
| 2026-05-07 23:58 | 29.58058 | -98.04263 | 37009 ft | 526 kts | 107° |
| 2026-05-07 23:59 | 29.56768 | -97.95998 | 37008 ft | 525 kts | 106° |
| 2026-05-07 23:59 | 29.55501 | -97.87690 | 36764 ft | 531 kts | 105° |
| 2026-05-08 00:00 | 29.54869 | -97.83510 | 36221 ft | 531 kts | 106° |
| 2026-05-08 00:00 | 29.54209 | -97.79327 | 35657 ft | 532 kts | 106° |
| 2026-05-08 00:00 | 29.53565 | -97.75138 | 35013 ft | 534 kts | 105° |
| 2026-05-08 00:00 | 29.52910 | -97.70930 | 34361 ft | 536 kts | 105° |
| 2026-05-08 00:01 | 29.52238 | -97.66714 | 33552 ft | 538 kts | 105° |
| 2026-05-08 00:01 | 29.51555 | -97.62475 | 32680 ft | 540 kts | 105° |
| 2026-05-08 00:01 | 29.50876 | -97.58228 | 31940 ft | 540 kts | 105° |
| 2026-05-08 00:01 | 29.50205 | -97.54009 | 31412 ft | 535 kts | 105° |
| 2026-05-08 00:02 | 29.49544 | -97.49825 | 30893 ft | 531 kts | 105° |
| 2026-05-08 00:02 | 29.48889 | -97.45677 | 30374 ft | 526 kts | 105° |
| 2026-05-08 00:02 | 29.48236 | -97.41556 | 29816 ft | 522 kts | 105° |
| 2026-05-08 00:02 | 29.47586 | -97.37468 | 29226 ft | 518 kts | 105° |
| 2026-05-08 00:03 | 29.46941 | -97.33421 | 28662 ft | 512 kts | 105° |
| 2026-05-08 00:03 | 29.46302 | -97.29420 | 28147 ft | 507 kts | 105° |
| 2026-05-08 00:03 | 29.45668 | -97.25465 | 27614 ft | 502 kts | 105° |
| 2026-05-08 00:03 | 29.45039 | -97.21545 | 27093 ft | 497 kts | 105° |
| 2026-05-08 00:04 | 29.44413 | -97.17654 | 26579 ft | 492 kts | 105° |
| 2026-05-08 00:04 | 29.43793 | -97.13812 | 26075 ft | 488 kts | 105° |
| 2026-05-08 00:04 | 29.43178 | -97.10003 | 25578 ft | 484 kts | 105° |
| 2026-05-08 00:04 | 29.42574 | -97.06267 | 25078 ft | 480 kts | 105° |
| 2026-05-08 00:05 | 29.41966 | -97.02512 | 24558 ft | 476 kts | 104° |
| 2026-05-08 00:05 | 29.41361 | -96.98786 | 24078 ft | 472 kts | 104° |
| 2026-05-08 00:05 | 29.40812 | -96.95096 | 23572 ft | 470 kts | 102° |
| 2026-05-08 00:05 | 29.40421 | -96.91374 | 22989 ft | 467 kts | 99° |
| 2026-05-08 00:06 | 29.40107 | -96.87681 | 22456 ft | 463 kts | 98° |
| 2026-05-08 00:06 | 29.39807 | -96.84019 | 21942 ft | 459 kts | 99° |
| 2026-05-08 00:06 | 29.39496 | -96.80397 | 21434 ft | 454 kts | 99° |
| 2026-05-08 00:06 | 29.39170 | -96.76813 | 20938 ft | 450 kts | 99° |
| 2026-05-08 00:07 | 29.38834 | -96.73258 | 20433 ft | 445 kts | 99° |
| 2026-05-08 00:07 | 29.38495 | -96.69740 | 19952 ft | 442 kts | 99° |
| 2026-05-08 00:07 | 29.38158 | -96.66248 | 19464 ft | 439 kts | 100° |
| 2026-05-08 00:07 | 29.37822 | -96.62781 | 18962 ft | 436 kts | 100° |
| 2026-05-08 00:08 | 29.37485 | -96.59334 | 18476 ft | 434 kts | 100° |
| 2026-05-08 00:08 | 29.37151 | -96.55913 | 17957 ft | 431 kts | 100° |
| 2026-05-08 00:08 | 29.36816 | -96.52510 | 17451 ft | 427 kts | 100° |
| 2026-05-08 00:08 | 29.36485 | -96.49145 | 16955 ft | 423 kts | 99° |
| 2026-05-08 00:09 | 29.36158 | -96.45813 | 16483 ft | 418 kts | 99° |
| 2026-05-08 00:09 | 29.35834 | -96.42513 | 16009 ft | 415 kts | 99° |
| 2026-05-08 00:09 | 29.35513 | -96.39236 | 15548 ft | 411 kts | 99° |
| 2026-05-08 00:09 | 29.35195 | -96.36007 | 15098 ft | 407 kts | 99° |
| 2026-05-08 00:10 | 29.34874 | -96.32798 | 14639 ft | 403 kts | 99° |
| 2026-05-08 00:10 | 29.34558 | -96.29619 | 14178 ft | 400 kts | 99° |
| 2026-05-08 00:10 | 29.34246 | -96.26466 | 13755 ft | 396 kts | 98° |
| 2026-05-08 00:10 | 29.33935 | -96.23337 | 13202 ft | 394 kts | 98° |
| 2026-05-08 00:11 | 29.33630 | -96.20273 | 12751 ft | 390 kts | 98° |
| 2026-05-08 00:11 | 29.33323 | -96.17193 | 12561 ft | 377 kts | 98° |
| 2026-05-08 00:11 | 29.33033 | -96.14296 | 12377 ft | 366 kts | 98° |
| 2026-05-08 00:11 | 29.32767 | -96.11441 | 12229 ft | 355 kts | 94° |
| 2026-05-08 00:12 | 29.33100 | -96.08677 | 12028 ft | 347 kts | 72° |
| 2026-05-08 00:12 | 29.34200 | -96.06242 | 11705 ft | 343 kts | 53° |
| 2026-05-08 00:12 | 29.35646 | -96.04088 | 11373 ft | 340 kts | 51° |
| 2026-05-08 00:12 | 29.37131 | -96.01994 | 11038 ft | 337 kts | 50° |
| 2026-05-08 00:13 | 29.38605 | -95.99918 | 10683 ft | 335 kts | 51° |
| 2026-05-08 00:13 | 29.39571 | -95.98546 | 10448 ft | 333 kts | 51° |
| 2026-05-08 00:13 | 29.41010 | -95.96481 | 10195 ft | 328 kts | 51° |
| 2026-05-08 00:13 | 29.42406 | -95.94462 | 10041 ft | 319 kts | 52° |
| 2026-05-08 00:14 | 29.43762 | -95.92494 | 9928 ft | 308 kts | 52° |
| 2026-05-08 00:14 | 29.45077 | -95.90579 | 9926 ft | 295 kts | 52° |
| 2026-05-08 00:14 | 29.46323 | -95.88721 | 9726 ft | 291 kts | 58° |
| 2026-05-08 00:14 | 29.47026 | -95.86615 | 9487 ft | 285 kts | 82° |
| 2026-05-08 00:15 | 29.47203 | -95.84362 | 9234 ft | 282 kts | 87° |
| 2026-05-08 00:15 | 29.47292 | -95.82090 | 8937 ft | 281 kts | 88° |
| 2026-05-08 00:15 | 29.47371 | -95.79883 | 8659 ft | 280 kts | 88° |
| 2026-05-08 00:15 | 29.47459 | -95.77626 | 8380 ft | 278 kts | 88° |
| 2026-05-08 00:16 | 29.47551 | -95.75420 | 8113 ft | 276 kts | 88° |
| 2026-05-08 00:16 | 29.47649 | -95.73221 | 7859 ft | 274 kts | 87° |
| 2026-05-08 00:16 | 29.47748 | -95.71062 | 7764 ft | 266 kts | 87° |
| 2026-05-08 00:16 | 29.47845 | -95.68969 | 7619 ft | 260 kts | 87° |
| 2026-05-08 00:17 | 29.47939 | -95.66965 | 7543 ft | 251 kts | 87° |
| 2026-05-08 00:17 | 29.48029 | -95.64965 | 7213 ft | 254 kts | 89° |
| 2026-05-08 00:17 | 29.47963 | -95.62959 | 6876 ft | 256 kts | 95° |
| 2026-05-08 00:17 | 29.47790 | -95.60921 | 6544 ft | 258 kts | 96° |
| 2026-05-08 00:18 | 29.47606 | -95.58856 | 6191 ft | 261 kts | 96° |
| 2026-05-08 00:18 | 29.47431 | -95.56768 | 5826 ft | 265 kts | 95° |
| 2026-05-08 00:18 | 29.47261 | -95.54648 | 5472 ft | 268 kts | 95° |
| 2026-05-08 00:18 | 29.47095 | -95.52511 | 5133 ft | 269 kts | 95° |
| 2026-05-08 00:19 | 29.46951 | -95.50402 | 4836 ft | 261 kts | 94° |
| 2026-05-08 00:19 | 29.47008 | -95.48353 | 4504 ft | 255 kts | 73° |
| 2026-05-08 00:19 | 29.47892 | -95.46633 | 4230 ft | 249 kts | 52° |
| 2026-05-08 00:19 | 29.48991 | -95.45144 | 4000 ft | 240 kts | 49° |
| 2026-05-08 00:20 | 29.50153 | -95.43793 | 3716 ft | 234 kts | 46° |
| 2026-05-08 00:20 | 29.51308 | -95.42519 | 3415 ft | 226 kts | 46° |
| 2026-05-08 00:20 | 29.52428 | -95.41289 | 3124 ft | 219 kts | 46° |
| 2026-05-08 00:20 | 29.53513 | -95.40084 | 2834 ft | 214 kts | 46° |
| 2026-05-08 00:21 | 29.54564 | -95.38914 | 2562 ft | 207 kts | 46° |
| 2026-05-08 00:21 | 29.55591 | -95.37774 | 2313 ft | 204 kts | 47° |
| 2026-05-08 00:21 | 29.56602 | -95.36651 | 2032 ft | 205 kts | 45° |
| 2026-05-08 00:21 | 29.57599 | -95.35543 | 1750 ft | 193 kts | 45° |
| 2026-05-08 00:22 | 29.58529 | -95.34507 | 1504 ft | 180 kts | 46° |
| 2026-05-08 00:22 | 29.59390 | -95.33554 | 1310 ft | 162 kts | 46° |
| 2026-05-08 00:22 | 29.60190 | -95.32664 | 1074 ft | 156 kts | 46° |
| 2026-05-08 00:22 | 29.60968 | -95.31799 | 878 ft | 157 kts | 44° |
| 2026-05-08 00:23 | 29.61762 | -95.30919 | 678 ft | 160 kts | 44° |
| 2026-05-08 00:23 | 29.62545 | -95.30055 | 433 ft | 159 kts | 44° |
| 2026-05-08 00:23 | 29.63322 | -95.29198 | 229 ft | 151 kts | 44° |
| 2026-05-08 00:23 | 29.64055 | -95.28377 | 51 ft | 140 kts | 44° |
| 2026-05-08 00:24 | 29.64639 | -95.27734 | 51 ft | 67 kts | 44° |
| 2026-05-08 00:24 | 29.64828 | -95.27532 | 51 ft | 16 kts | 29° |
| 2026-05-08 00:24 | 29.64914 | -95.27521 | 51 ft | 9 kts | 359° |
| 2026-05-08 00:24 | 29.64975 | -95.27522 | 51 ft | 9 kts | 359° |
| 2026-05-08 00:25 | 29.65034 | -95.27523 | 51 ft | 8 kts | 356° |
| 2026-05-08 00:25 | 29.65085 | -95.27549 | 49 ft | 8 kts | 310° |
| 2026-05-08 00:25 | 29.65098 | -95.27611 | 51 ft | 8 kts | 279° |
| 2026-05-08 00:25 | 29.65101 | -95.27674 | 51 ft | 8 kts | 271° |
| 2026-05-08 00:26 | 29.65101 | -95.27734 | 51 ft | 7 kts | 269° |
| 2026-05-08 00:26 | 29.65102 | -95.27792 | 51 ft | 7 kts | 296° |
| 2026-05-08 00:26 | 29.65149 | -95.27808 | 51 ft | 7 kts | 358° |
| 2026-05-08 00:26 | 29.65188 | -95.27815 | 51 ft | 3 kts | 349° |
| 2026-05-08 00:27 | 29.65202 | -95.27816 | 49 ft | 1 kts | 355° |
| 2026-05-08 00:27 | 29.65203 | -95.27816 | 49 ft | 0 kts | 356° |